Capshaw, Alabama
Current Conditions -  °F | °C
As of 4:53 PM on Wednesday 26 Nov 2014 (Local Time) from KHSV Reporting Station
Light Rain Light Rain  
Wind Chill: 53°   Ceiling: 6000
Heat Index: 53°   Visibility: 10mi
Dew Point: 29°   Wind: 10mph
Humidity: 40%   Direction: 130°SE
Pressure: 30.01"   Gusts: 28mph
Location:  34.77°N, 86.79°W
Report Text: KHSV 262253Z 13009G24KT 10SM -RA BKN060 OVC070 12/M02 A3001 RMK AO2 RAB24 SLP161 P0000 T01171017
Loading
Personal Weather Stations






























Interactive Weather Map New forecast layout! Learn more

10-Day Weather Forecast

Advertisements
Track Severe Weather on mobile